Terminal Aerodrome Forecast
Issued by NWS

Home | Current Version | Previous Version | Text Only | Print | Product List | Glossary On
Versions: 1 2 3 4 5 6 7 8 9 10 11 12 13
000
FTUS42 KTBW 290500
TAFLAL
TAF
KLAL 290540Z 2906/3006 22005KT P6SM SCT025 BKN250
     FM291400 26007KT P6SM VCTS SCT025CB SCT100 BKN250
     FM291700 27011KT P6SM VCTS BKN035CB
     FM300000 25006KT P6SM SCT030 SCT100 BKN250
      AMD NOT SKED TIL 291200=

USA.gov is the U.S. government's official web portal to all federal, state and local government web resources and services.